Time;durP1;ratioP1;P1;durP2;ratioP2;P2;SDS_P1;SDS_P2;PMS_P1;PMS_P2;Temp;Humidity;BMP_temperature;BMP_pressure;BME280_temperature;BME280_humidity;BME280_pressure;Samples;Min_cycle;Max_cycle;Signal;HPM_P1;HPM_P2
2021/12/31 00:00:48;;;;;;;8.13;1.52;;;13.60;99.90;;;;;;5030427;28;20060;-71
2021/12/31 00:03:18;;;;;;;7.03;2.10;;;13.60;99.90;;;;;;5031403;28;20068;-71
2021/12/31 00:05:45;;;;;;;4.10;1.60;;;13.60;99.90;;;;;;5032093;28;20482;-70
2021/12/31 00:08:11;;;;;;;4.05;1.67;;;13.60;99.90;;;;;;5032213;28;20025;-71
2021/12/31 00:10:37;;;;;;;4.13;1.58;;;13.60;99.90;;;;;;5031704;28;20049;-70
2021/12/31 00:13:03;;;;;;;;;;;13.70;99.90;;;;;;5032079;28;20021;-70
2021/12/31 00:15:29;;;;;;;6.20;1.53;;;13.70;99.90;;;;;;5013658;28;20023;-70
2021/12/31 00:17:55;;;;;;;3.53;1.50;;;13.70;99.90;;;;;;5032179;28;20604;-70
2021/12/31 00:20:24;;;;;;;6.67;1.93;;;13.70;99.90;;;;;;5031626;28;20466;-70
2021/12/31 00:23:03;;;;;;;5.38;1.90;;;13.70;99.90;;;;;;5031861;28;20128;-70
2021/12/31 00:25:31;;;;;;;4.43;1.92;;;13.80;99.90;;;;;;5031866;28;20087;-70
2021/12/31 00:27:57;;;;;;;4.18;1.27;;;13.90;99.90;;;;;;5033206;28;20024;-70
2021/12/31 00:30:23;;;;;;;4.07;1.40;;;14.20;99.90;;;;;;5035285;28;20168;-69
2021/12/31 00:32:50;;;;;;;3.85;1.55;;;14.20;99.90;;;;;;5035577;28;20124;-69
2021/12/31 00:35:16;;;;;;;4.65;1.35;;;14.20;99.90;;;;;;5035307;28;20032;-70
2021/12/31 00:37:42;;;;;;;5.03;1.70;;;14.10;99.90;;;;;;5035329;28;20041;-70
2021/12/31 00:40:12;;;;;;;5.43;2.08;;;14.20;99.90;;;;;;5035404;28;20021;-70
2021/12/31 00:42:38;;;;;;;4.72;1.73;;;14.10;99.90;;;;;;5035027;28;20473;-70
2021/12/31 00:45:07;;;;;;;7.13;1.77;;;14.10;99.90;;;;;;5035220;28;20018;-70
2021/12/31 00:47:33;;;;;;;6.18;1.50;;;14.00;99.90;;;;;;5034887;28;20026;-70
2021/12/31 00:49:59;;;;;;;7.57;1.70;;;14.00;99.90;;;;;;5034833;28;20025;-70
2021/12/31 00:52:25;;;;;;;4.22;1.95;;;14.10;99.90;;;;;;5035033;28;20029;-70
2021/12/31 00:54:52;;;;;;;4.07;1.70;;;14.20;99.90;;;;;;5034920;28;20036;-70
2021/12/31 00:57:18;;;;;;;4.03;1.47;;;14.10;99.90;;;;;;5034862;28;20033;-71
2021/12/31 00:59:44;;;;;;;5.60;1.77;;;14.10;99.90;;;;;;5034686;28;20548;-70
2021/12/31 01:02:13;;;;;;;5.67;1.67;;;14.00;99.90;;;;;;5034688;28;20562;-70
2021/12/31 01:04:41;;;;;;;3.47;1.50;;;14.00;99.90;;;;;;5034707;28;20260;-70
2021/12/31 01:07:07;;;;;;;3.92;1.58;;;13.80;99.90;;;;;;5035261;28;20117;-71
2021/12/31 01:09:33;;;;;;;4.57;1.80;;;13.80;99.90;;;;;;5035172;28;20078;-71
2021/12/31 01:12:01;;;;;;;4.35;1.73;;;13.70;99.90;;;;;;5034507;28;20124;-71
2021/12/31 01:14:37;;;;;;;5.90;1.77;;;13.70;99.90;;;;;;5034682;28;20022;-71
2021/12/31 01:17:07;;;;;;;7.45;1.92;;;13.70;99.90;;;;;;5034972;28;20029;-71
2021/12/31 01:19:46;;;;;;;4.57;1.60;;;13.70;99.90;;;;;;5034619;28;20478;-70
2021/12/31 01:22:23;;;;;;;6.10;1.73;;;13.70;99.90;;;;;;5035128;28;20029;-70
2021/12/31 01:24:50;;;;;;;4.45;1.70;;;13.60;99.90;;;;;;5034792;28;20421;-71
2021/12/31 01:27:16;;;;;;;6.63;1.70;;;13.60;99.90;;;;;;5034422;28;20052;-70
2021/12/31 01:29:42;;;;;;;5.88;1.70;;;13.60;99.90;;;;;;5034326;28;20040;-70
2021/12/31 01:32:09;;;;;;;5.97;1.70;;;13.50;99.90;;;;;;5034448;28;20025;-70
2021/12/31 01:34:35;;;;;;;;;;;13.50;99.90;;;;;;5034730;28;20527;-71
2021/12/31 01:37:02;;;;;;;5.95;1.75;;;13.50;99.90;;;;;;5034804;28;20219;-70
2021/12/31 01:39:29;;;;;;;5.15;1.70;;;13.40;99.90;;;;;;5034301;28;20115;-70
2021/12/31 01:41:58;;;;;;;4.32;1.48;;;13.40;99.90;;;;;;5033946;28;20062;-71
2021/12/31 01:44:33;;;;;;;7.38;1.80;;;13.40;99.90;;;;;;5034293;28;20105;-71
2021/12/31 01:47:05;;;;;;;6.55;2.00;;;13.40;99.90;;;;;;5034258;28;20032;-69
2021/12/31 01:49:37;;;;;;;4.72;1.73;;;13.40;99.90;;;;;;5034253;28;20143;-69
2021/12/31 01:52:05;;;;;;;8.77;1.73;;;13.40;99.90;;;;;;5033959;28;20087;-69
2021/12/31 01:54:32;;;;;;;5.80;1.80;;;13.30;99.90;;;;;;5033562;28;20438;-70
2021/12/31 01:57:00;;;;;;;;;;;13.40;99.90;;;;;;5034496;28;20029;-71
2021/12/31 01:59:26;;;;;;;6.88;1.67;;;13.50;99.90;;;;;;5033810;28;19908;-70
2021/12/31 02:01:54;;;;;;;4.88;1.77;;;13.60;99.90;;;;;;5033571;28;20030;-70
2021/12/31 02:04:21;;;;;;;3.33;1.45;;;13.70;99.90;;;;;;5033894;28;20112;-70
2021/12/31 02:06:47;;;;;;;4.27;1.73;;;13.80;99.90;;;;;;5033835;28;20458;-70
2021/12/31 02:09:13;;;;;;;4.25;1.65;;;13.80;99.90;;;;;;5033424;28;20024;-71
2021/12/31 02:11:40;;;;;;;4.53;1.58;;;13.80;99.90;;;;;;5033124;28;20053;-71
2021/12/31 02:14:06;;;;;;;;;;;13.90;99.90;;;;;;5033802;28;20057;-70
2021/12/31 02:16:33;;;;;;;4.10;1.40;;;13.90;99.90;;;;;;5033274;28;19983;-70
2021/12/31 02:19:13;;;;;;;4.43;1.67;;;13.90;99.90;;;;;;5033100;28;20025;-70
2021/12/31 02:21:45;;;;;;;8.00;1.83;;;14.00;99.90;;;;;;5033198;28;20037;-70
2021/12/31 02:24:12;;;;;;;5.78;1.42;;;13.90;99.90;;;;;;5033124;28;20100;-70
2021/12/31 02:26:39;;;;;;;5.15;1.70;;;13.90;99.90;;;;;;5033147;28;20190;-71
2021/12/31 02:29:05;;;;;;;6.57;1.60;;;14.00;99.90;;;;;;5033491;28;20040;-70
2021/12/31 02:31:31;;;;;;;6.50;1.90;;;13.90;99.90;;;;;;5033061;28;20034;-70
2021/12/31 02:33:57;;;;;;;3.55;1.73;;;14.00;99.90;;;;;;5015106;28;20260;-70
2021/12/31 02:36:23;;;;;;;4.40;2.05;;;13.90;99.90;;;;;;5033239;28;20045;-68
2021/12/31 02:38:50;;;;;;;6.90;1.80;;;13.90;99.90;;;;;;5033297;28;20171;-71
2021/12/31 02:41:16;;;;;;;5.18;1.40;;;13.80;99.90;;;;;;5032998;28;20748;-71
2021/12/31 02:43:42;;;;;;;7.70;1.88;;;13.80;99.90;;;;;;5015043;28;20025;-71
2021/12/31 02:46:08;;;;;;;4.43;1.50;;;13.80;99.90;;;;;;5032668;28;20029;-70
2021/12/31 02:48:34;;;;;;;4.22;1.60;;;13.70;99.90;;;;;;5033114;28;20362;-70
2021/12/31 02:51:01;;;;;;;5.63;1.63;;;13.70;99.90;;;;;;5014124;28;20100;-71
2021/12/31 02:53:41;;;;;;;3.38;1.42;;;13.80;99.90;;;;;;5014671;28;20264;-71
2021/12/31 02:56:10;;;;;;;3.22;1.58;;;13.70;99.90;;;;;;5032505;28;20362;-70
2021/12/31 02:58:38;;;;;;;4.90;1.75;;;13.70;99.90;;;;;;5032497;28;20030;-70
2021/12/31 03:01:06;;;;;;;6.28;1.90;;;13.80;99.90;;;;;;5032739;28;20044;-70
2021/12/31 03:03:35;;;;;;;8.10;2.00;;;13.80;99.90;;;;;;5032394;28;20084;-69
2021/12/31 03:06:02;;;;;;;6.50;1.52;;;13.80;99.90;;;;;;5032522;28;20026;-71
2021/12/31 03:08:41;;;;;;;3.97;1.67;;;13.80;99.90;;;;;;5032731;28;20029;-70
2021/12/31 03:11:09;;;;;;;5.05;1.67;;;13.80;99.90;;;;;;5032170;28;20406;-71
2021/12/31 03:13:38;;;;;;;4.45;1.70;;;13.80;99.90;;;;;;5032229;28;20057;-70
2021/12/31 03:16:07;;;;;;;5.97;1.75;;;13.80;99.90;;;;;;5032516;28;20327;-71
2021/12/31 03:18:33;;;;;;;4.97;1.90;;;13.70;99.90;;;;;;5032601;28;20025;-70
2021/12/31 03:21:09;;;;;;;4.22;1.60;;;13.60;99.90;;;;;;5032367;28;20028;-70
2021/12/31 03:23:35;;;;;;;5.13;1.70;;;13.60;99.90;;;;;;5032137;28;20175;-70
2021/12/31 03:26:01;;;;;;;4.85;1.90;;;13.60;99.90;;;;;;5032123;28;20030;-71
2021/12/31 03:28:27;;;;;;;4.18;1.48;;;13.60;99.90;;;;;;5032513;28;20437;-72
2021/12/31 03:30:55;;;;;;;3.70;1.60;;;13.50;99.90;;;;;;5032213;28;20354;-71
2021/12/31 03:33:21;;;;;;;4.93;1.50;;;13.50;99.90;;;;;;5032003;28;20025;-70
2021/12/31 03:35:47;;;;;;;5.40;1.30;;;13.50;99.90;;;;;;5013960;28;20120;-70
2021/12/31 03:38:14;;;;;;;4.55;1.60;;;13.50;99.90;;;;;;5031892;28;20474;-69
2021/12/31 03:40:40;;;;;;;4.23;1.47;;;13.50;99.90;;;;;;5032377;28;20427;-70
2021/12/31 03:43:08;;;;;;;3.72;1.50;;;13.50;99.90;;;;;;5031737;28;20287;-71
2021/12/31 03:45:35;;;;;;;4.82;1.30;;;13.50;99.90;;;;;;5032144;28;20469;-70
2021/12/31 03:48:01;;;;;;;5.78;1.40;;;13.50;99.90;;;;;;5031738;28;20430;-70
2021/12/31 03:50:27;;;;;;;3.53;1.42;;;13.50;99.90;;;;;;5013945;28;20406;-70
2021/12/31 03:52:53;;;;;;;4.50;1.20;;;13.50;99.90;;;;;;5013905;28;20386;-70
2021/12/31 03:55:20;;;;;;;5.27;1.40;;;13.50;99.90;;;;;;5031642;28;20033;-70
2021/12/31 03:57:46;;;;;;;3.85;1.50;;;13.50;99.90;;;;;;5031676;28;20052;-71
2021/12/31 04:00:12;;;;;;;2.47;1.20;;;13.50;99.90;;;;;;5031706;28;20029;-70
2021/12/31 04:02:38;;;;;;;3.70;1.40;;;13.60;99.90;;;;;;5033270;28;20029;-71
2021/12/31 04:05:05;;;;;;;4.97;1.48;;;13.50;99.90;;;;;;5035761;28;20032;-69
2021/12/31 04:07:31;;;;;;;6.28;1.55;;;13.50;99.90;;;;;;5035851;28;20029;-70
2021/12/31 04:09:57;;;;;;;3.67;1.30;;;13.50;99.90;;;;;;5035810;28;20144;-69
2021/12/31 04:12:23;;;;;;;2.93;1.50;;;13.60;99.90;;;;;;5036092;28;20057;-70
2021/12/31 04:14:49;;;;;;;2.97;1.40;;;13.60;99.90;;;;;;5035840;28;20033;-70
2021/12/31 04:17:15;;;;;;;4.90;1.38;;;13.60;99.90;;;;;;5035541;28;20037;-69
2021/12/31 04:19:42;;;;;;;2.10;1.20;;;13.50;99.90;;;;;;5035730;28;20025;-70
2021/12/31 04:22:12;;;;;;;3.38;1.13;;;13.60;99.90;;;;;;5035473;28;20053;-69
2021/12/31 04:27:10;;;;;;;3.17;1.40;;;13.60;99.90;;;;;;5035310;28;20485;-70
2021/12/31 04:29:37;;;;;;;3.13;1.30;;;13.60;99.90;;;;;;5035857;28;20397;-70
2021/12/31 04:32:04;;;;;;;4.35;1.85;;;13.60;99.90;;;;;;5035331;28;20371;-70
2021/12/31 04:34:30;;;;;;;3.05;1.30;;;13.60;99.90;;;;;;5017247;28;20040;-70
2021/12/31 04:36:56;;;;;;;3.83;1.33;;;13.60;99.90;;;;;;5017255;28;20025;-70
2021/12/31 04:39:22;;;;;;;4.23;1.50;;;13.60;99.90;;;;;;5035111;28;20450;-70
2021/12/31 04:41:48;;;;;;;4.87;1.53;;;13.60;99.90;;;;;;5034867;28;20272;-71
2021/12/31 04:44:15;;;;;;;4.63;1.35;;;13.60;99.90;;;;;;5035102;28;20032;-70
2021/12/31 04:46:41;;;;;;;3.05;1.50;;;13.60;99.90;;;;;;5034928;28;20022;-70
2021/12/31 04:49:07;;;;;;;4.32;1.70;;;13.60;99.90;;;;;;5034927;28;20079;-70
2021/12/31 04:51:34;;;;;;;4.90;1.73;;;13.60;99.90;;;;;;5034908;28;20052;-70
2021/12/31 04:54:00;;;;;;;4.57;1.50;;;13.70;99.90;;;;;;5035064;28;20086;-70
2021/12/31 04:56:26;;;;;;;4.93;1.48;;;13.70;99.90;;;;;;5034994;28;20044;-70
2021/12/31 04:58:52;;;;;;;3.72;1.80;;;13.60;99.90;;;;;;5034859;28;20021;-69
2021/12/31 05:01:21;;;;;;;4.97;1.50;;;13.60;99.90;;;;;;5034768;28;20025;-69
2021/12/31 05:03:48;;;;;;;3.83;1.60;;;13.60;99.90;;;;;;5034601;28;20370;-70
2021/12/31 05:06:15;;;;;;;3.33;1.40;;;13.60;99.90;;;;;;5034747;28;20029;-69
2021/12/31 05:08:41;;;;;;;3.90;1.70;;;13.70;99.90;;;;;;5034437;28;20117;-69
2021/12/31 05:11:08;;;;;;;5.13;1.70;;;13.60;99.90;;;;;;5034306;28;20057;-70
2021/12/31 05:13:34;;;;;;;4.38;1.60;;;13.70;99.90;;;;;;5033742;28;20087;-70
2021/12/31 05:16:03;;;;;;;4.80;1.50;;;13.60;99.90;;;;;;5034111;28;20041;-70
2021/12/31 05:18:29;;;;;;;4.18;1.77;;;13.60;99.90;;;;;;5034272;28;20026;-69
2021/12/31 05:20:55;;;;;;;4.65;1.60;;;13.50;99.90;;;;;;5034136;28;20026;-70
2021/12/31 05:23:22;;;;;;;5.22;1.75;;;13.50;99.90;;;;;;5034598;28;20028;-70
2021/12/31 05:25:48;;;;;;;8.60;2.10;;;13.50;99.90;;;;;;5034213;28;20037;-69
2021/12/31 05:28:14;;;;;;;4.17;1.90;;;13.40;99.90;;;;;;5016155;28;20343;-70
2021/12/31 05:30:40;;;;;;;5.03;1.80;;;13.40;99.90;;;;;;5034281;28;20064;-70
2021/12/31 05:33:06;;;;;;;4.20;1.63;;;13.40;99.90;;;;;;5034138;28;20033;-71
2021/12/31 05:35:32;;;;;;;3.83;1.73;;;13.30;99.90;;;;;;5033859;28;20296;-69
2021/12/31 05:37:58;;;;;;;3.45;1.70;;;13.30;99.90;;;;;;5034247;28;20036;-69
2021/12/31 05:40:25;;;;;;;5.93;1.50;;;13.20;99.90;;;;;;5034068;28;20036;-69
2021/12/31 05:42:52;;;;;;;4.90;1.60;;;13.20;99.90;;;;;;5034243;28;20100;-68
2021/12/31 05:45:18;;;;;;;2.70;1.55;;;13.40;99.90;;;;;;5015836;28;20058;-68
2021/12/31 05:47:46;;;;;;;5.65;1.88;;;13.40;99.90;;;;;;5034149;28;20036;-68
2021/12/31 05:50:27;;;;;;;6.40;1.88;;;13.40;99.90;;;;;;5034051;28;20048;-68
2021/12/31 05:52:54;;;;;;;3.63;1.90;;;13.30;99.90;;;;;;5034024;28;20531;-68
2021/12/31 05:55:21;;;;;;;6.22;1.90;;;13.30;99.90;;;;;;5033922;28;20340;-68
2021/12/31 05:57:47;;;;;;;4.07;1.85;;;13.30;99.90;;;;;;5033627;28;20112;-69
2021/12/31 06:00:14;;;;;;;3.22;1.60;;;13.40;99.90;;;;;;5033664;28;20029;-68
2021/12/31 06:02:40;;;;;;;3.88;1.60;;;13.40;99.90;;;;;;5015570;28;20075;-68
2021/12/31 06:05:07;;;;;;;4.63;1.77;;;13.40;99.90;;;;;;5033685;28;20474;-69
2021/12/31 06:07:33;;;;;;;4.78;1.88;;;13.40;99.90;;;;;;5033497;28;20033;-69
2021/12/31 06:09:59;;;;;;;7.43;2.10;;;13.30;99.90;;;;;;5015243;28;20017;-69
2021/12/31 06:12:26;;;;;;;5.63;1.83;;;13.30;99.90;;;;;;5033888;28;20334;-69
2021/12/31 06:14:54;;;;;;;6.43;2.45;;;13.30;99.90;;;;;;5033266;28;20033;-69
2021/12/31 06:17:25;;;;;;;7.28;1.88;;;13.20;99.90;;;;;;5033346;28;20105;-69
2021/12/31 06:19:52;;;;;;;3.17;1.48;;;13.10;99.90;;;;;;5033072;28;20386;-69
2021/12/31 06:22:19;;;;;;;3.95;1.90;;;13.10;99.90;;;;;;5033313;28;20083;-69
2021/12/31 06:24:45;;;;;;;;;;;13.10;99.90;;;;;;5033229;28;20021;-69
2021/12/31 06:27:11;;;;;;;3.17;1.70;;;13.10;99.90;;;;;;5033376;28;19905;-68
2021/12/31 06:29:37;;;;;;;3.53;1.67;;;13.20;99.90;;;;;;5012716;28;20093;-70
2021/12/31 06:32:04;;;;;;;3.20;1.73;;;13.30;99.90;;;;;;5013462;28;20033;-69
2021/12/31 06:34:30;;;;;;;3.72;1.60;;;13.40;99.90;;;;;;5017909;28;20053;-69
2021/12/31 06:36:56;;;;;;;3.83;1.83;;;13.50;99.90;;;;;;5029851;28;20065;-70
2021/12/31 06:39:24;;;;;;;4.13;1.48;;;13.80;99.90;;;;;;5033269;28;20036;-70
2021/12/31 06:41:51;;;;;;;5.65;1.90;;;14.30;99.90;;;;;;5032841;28;20101;-70
2021/12/31 06:44:17;;;;;;;7.75;1.63;;;14.80;99.90;;;;;;5033097;28;20022;-69
2021/12/31 06:46:44;;;;;;;4.20;2.15;;;15.40;99.90;;;;;;5032624;28;20112;-70
2021/12/31 06:49:10;;;;;;;12.80;3.10;;;16.20;99.90;;;;;;5032481;28;20079;-70
2021/12/31 06:51:36;;;;;;;3.70;1.80;;;17.00;99.90;;;;;;5033125;28;20025;-70
2021/12/31 06:54:02;;;;;;;6.28;1.73;;;17.50;99.10;;;;;;5014603;28;20032;-70
2021/12/31 06:56:28;;;;;;;3.70;1.60;;;17.50;99.50;;;;;;5032429;28;20050;-71
2021/12/31 06:58:54;;;;;;;9.40;2.03;;;17.70;98.60;;;;;;5032447;28;20132;-70
2021/12/31 07:01:21;;;;;;;6.50;2.30;;;18.20;97.90;;;;;;5032779;28;20025;-70
2021/12/31 07:03:47;;;;;;;3.22;1.50;;;18.60;97.40;;;;;;5032475;28;20604;-70
2021/12/31 07:06:13;;;;;;;5.43;1.88;;;19.20;96.10;;;;;;5032370;28;20056;-70
2021/12/31 07:08:40;;;;;;;4.60;1.70;;;19.20;95.60;;;;;;5032339;28;20152;-68
2021/12/31 07:11:06;;;;;;;;;;;19.70;94.80;;;;;;5032533;28;20413;-70
2021/12/31 07:13:32;;;;;;;3.55;1.50;;;19.90;94.90;;;;;;5032499;28;20054;-70
2021/12/31 07:15:58;;;;;;;5.55;2.05;;;20.30;94.00;;;;;;5032224;28;20033;-71
2021/12/31 07:18:24;;;;;;;5.40;1.90;;;21.50;93.10;;;;;;5032266;28;20025;-70
2021/12/31 07:20:52;;;;;;;4.05;1.80;;;22.40;90.60;;;;;;5014439;28;20080;-70
2021/12/31 07:23:20;;;;;;;4.03;2.00;;;22.40;90.40;;;;;;5032118;28;20061;-70
2021/12/31 07:25:46;;;;;;;5.57;1.90;;;23.30;89.30;;;;;;5032381;28;20374;-70
2021/12/31 07:28:14;;;;;;;5.55;1.80;;;24.00;87.10;;;;;;5032165;28;20029;-70
2021/12/31 07:30:41;;;;;;;5.90;1.88;;;24.70;84.60;;;;;;5032206;28;20030;-70
2021/12/31 07:33:17;;;;;;;5.18;1.73;;;25.10;81.10;;;;;;5032265;28;20150;-70
2021/12/31 07:35:44;;;;;;;3.78;1.92;;;24.80;79.10;;;;;;5032054;28;20092;-69
2021/12/31 07:38:18;;;;;;;4.07;2.05;;;23.90;78.30;;;;;;5032125;28;20029;-70
2021/12/31 07:40:45;;;;;;;4.10;1.70;;;23.20;80.20;;;;;;5032020;28;20497;-69
2021/12/31 07:43:11;;;;;;;3.97;1.75;;;22.70;82.30;;;;;;5014167;28;20018;-69
2021/12/31 07:45:37;;;;;;;;;;;23.30;80.20;;;;;;5032394;28;20040;-69
2021/12/31 07:48:03;;;;;;;;;;;23.60;79.10;;;;;;5032848;28;19916;-70
2021/12/31 07:50:29;;;;;;;;;;;24.00;78.90;;;;;;5032310;28;19905;-70
2021/12/31 07:52:55;;;;;;;5.47;1.67;;;23.40;78.60;;;;;;5031928;28;19912;-69
2021/12/31 07:55:22;;;;;;;2.97;1.60;;;22.80;81.00;;;;;;5031791;28;20032;-69
2021/12/31 07:57:48;;;;;;;4.00;1.73;;;22.50;82.20;;;;;;5014051;28;20113;-69
2021/12/31 08:00:14;;;;;;;5.03;2.13;;;22.00;81.20;;;;;;5031903;28;20026;-69
2021/12/31 08:02:40;;;;;;;;;;;21.30;83.30;;;;;;5032273;28;20029;-69
2021/12/31 08:05:06;;;;;;;4.93;1.90;;;20.60;85.60;;;;;;5031754;28;19911;-69
2021/12/31 08:07:32;;;;;;;4.22;2.17;;;20.30;87.80;;;;;;5013816;28;20043;-68
2021/12/31 08:09:58;;;;;;;4.70;2.30;;;20.30;88.80;;;;;;5031571;28;20167;-69
2021/12/31 08:12:24;;;;;;;7.32;2.10;;;20.20;90.00;;;;;;5032108;28;20103;-70
2021/12/31 08:14:51;;;;;;;4.10;1.83;;;20.20;90.20;;;;;;5032214;28;20030;-70
2021/12/31 08:17:17;;;;;;;3.42;1.65;;;20.00;87.40;;;;;;5014089;28;20066;-70
2021/12/31 08:19:43;;;;;;;5.28;2.28;;;19.50;87.80;;;;;;5031883;28;20504;-69
2021/12/31 08:22:09;;;;;;;4.68;1.95;;;19.30;89.60;;;;;;5013941;28;20095;-70
2021/12/31 08:24:35;;;;;;;4.40;1.90;;;19.10;90.00;;;;;;5031891;28;20029;-70
2021/12/31 08:27:01;;;;;;;4.95;1.80;;;19.10;90.40;;;;;;5031701;28;20108;-70
2021/12/31 08:29:27;;;;;;;3.97;2.00;;;19.10;90.20;;;;;;5031530;28;20028;-69
2021/12/31 08:31:54;;;;;;;6.65;2.30;;;19.10;90.30;;;;;;5009597;28;20389;-68
2021/12/31 08:34:20;;;;;;;10.38;2.10;;;19.10;90.60;;;;;;5011914;28;20109;-69
2021/12/31 08:36:46;;;;;;;4.72;1.95;;;19.00;90.60;;;;;;5011802;28;20124;-69
2021/12/31 08:39:12;;;;;;;7.20;2.28;;;19.00;90.90;;;;;;5011847;28;20104;-67
2021/12/31 08:41:40;;;;;;;5.70;2.10;;;18.60;91.60;;;;;;5011769;28;20107;-69
2021/12/31 08:44:07;;;;;;;5.10;1.80;;;18.10;92.40;;;;;;4994098;28;20444;-71
2021/12/31 08:46:34;;;;;;;6.03;2.45;;;18.10;92.70;;;;;;5011671;28;20026;-70
2021/12/31 08:49:01;;;;;;;12.63;2.78;;;18.00;93.00;;;;;;5013958;28;20041;-69
2021/12/31 08:51:27;;;;;;;6.80;2.70;;;17.90;93.70;;;;;;5015310;28;20105;-69
2021/12/31 08:53:55;;;;;;;5.90;2.20;;;18.10;94.10;;;;;;5015731;28;20474;-69
2021/12/31 08:56:21;;;;;;;21.02;2.92;;;18.30;92.80;;;;;;5015691;28;20125;-70
2021/12/31 08:58:48;;;;;;;5.93;2.05;;;18.40;93.80;;;;;;5015494;28;20104;-68
2021/12/31 09:01:14;;;;;;;3.95;2.20;;;18.50;93.30;;;;;;5015047;28;20417;-69
2021/12/31 09:03:40;;;;;;;4.25;1.80;;;18.30;93.00;;;;;;4997606;28;20380;-69
2021/12/31 09:06:07;;;;;;;3.67;1.90;;;18.10;92.70;;;;;;5014983;28;20037;-69
2021/12/31 09:08:33;;;;;;;;;;;18.20;92.90;;;;;;5015331;28;20500;-69
2021/12/31 09:11:00;;;;;;;3.88;2.20;;;18.40;93.50;;;;;;5024683;28;19917;-69
2021/12/31 09:13:28;;;;;;;8.32;2.55;;;18.70;93.30;;;;;;5034648;28;20033;-69
2021/12/31 09:15:54;;;;;;;5.50;2.00;;;19.00;92.90;;;;;;5034243;28;20042;-69
2021/12/31 09:18:21;;;;;;;4.00;1.88;;;18.80;92.00;;;;;;5034997;28;20022;-70
2021/12/31 09:20:48;;;;;;;4.97;2.08;;;18.70;92.00;;;;;;5034577;28;20108;-70
2021/12/31 09:23:15;;;;;;;4.55;1.95;;;18.60;92.40;;;;;;5034374;28;20084;-70
2021/12/31 09:25:41;;;;;;;5.63;1.98;;;18.60;92.30;;;;;;5033841;28;20029;-70
2021/12/31 09:28:07;;;;;;;3.50;2.00;;;18.80;92.40;;;;;;5034614;28;20485;-69
2021/12/31 09:30:33;;;;;;;4.63;2.30;;;18.70;91.90;;;;;;5034413;28;20022;-70
2021/12/31 09:32:59;;;;;;;3.70;1.73;;;18.60;92.50;;;;;;5016510;28;20083;-69
2021/12/31 09:35:25;;;;;;;4.15;1.60;;;18.80;92.10;;;;;;5034791;28;20124;-70
2021/12/31 09:37:52;;;;;;;3.88;1.77;;;18.60;91.20;;;;;;5034621;28;20510;-70
2021/12/31 09:40:18;;;;;;;3.83;1.70;;;18.50;91.20;;;;;;5034626;28;20033;-69
2021/12/31 09:43:08;;;;;;;4.82;1.73;;;18.60;91.80;;;;;;5034216;28;20466;-69
2021/12/31 09:45:36;;;;;;;4.82;1.60;;;18.80;91.10;;;;;;5034425;28;20026;-69
2021/12/31 09:48:14;;;;;;;4.13;1.90;;;19.00;91.20;;;;;;5034687;28;20026;-70
2021/12/31 09:50:46;;;;;;;3.72;1.85;;;18.90;90.50;;;;;;5036839;28;20041;-70
2021/12/31 09:53:13;;;;;;;3.35;1.75;;;18.80;90.50;;;;;;5033483;28;20478;-69
2021/12/31 09:55:45;;;;;;;4.10;1.83;;;18.90;90.90;;;;;;5033572;28;20044;-70
2021/12/31 09:58:13;;;;;;;4.63;1.63;;;18.90;90.40;;;;;;5034065;28;20021;-69
2021/12/31 10:00:47;;;;;;;5.15;2.10;;;18.90;90.20;;;;;;5033279;28;20405;-69
2021/12/31 10:03:22;;;;;;;3.35;1.65;;;19.00;90.90;;;;;;5033488;28;20017;-68
2021/12/31 10:05:52;;;;;;;3.65;1.50;;;19.00;90.10;;;;;;5033106;28;20068;-68
2021/12/31 10:08:25;;;;;;;3.47;1.77;;;18.90;87.40;;;;;;5033147;28;20022;-69
2021/12/31 10:11:23;;;;;;;4.05;1.83;;;18.80;88.80;;;;;;5032567;28;20042;-68
2021/12/31 10:13:59;;;;;;;4.38;1.90;;;18.90;90.00;;;;;;5033554;28;20040;-68
2021/12/31 10:16:30;;;;;;;5.03;1.80;;;19.00;89.90;;;;;;5033474;28;20063;-67
2021/12/31 10:19:08;;;;;;;4.45;1.52;;;18.80;89.10;;;;;;5033320;28;20505;-68
2021/12/31 10:21:38;;;;;;;4.68;1.70;;;19.00;87.50;;;;;;5033855;28;20040;-67
2021/12/31 10:24:38;;;;;;;4.68;1.42;;;19.00;89.30;;;;;;5033431;28;20508;-68
2021/12/31 10:27:25;;;;;;;3.22;1.55;;;19.00;86.70;;;;;;4972424;28;20078;-68
2021/12/31 10:29:55;;;;;;;4.30;1.50;;;19.00;86.60;;;;;;4956139;28;20137;-68
2021/12/31 10:32:22;;;;;;;3.13;1.40;;;19.20;86.20;;;;;;4972483;28;20348;-68
2021/12/31 10:34:49;;;;;;;4.75;1.75;;;19.30;85.90;;;;;;4972201;28;20030;-68
2021/12/31 10:37:17;;;;;;;3.63;1.58;;;19.50;87.20;;;;;;4972357;28;20049;-69
2021/12/31 10:39:44;;;;;;;3.88;1.58;;;19.80;86.90;;;;;;4972206;28;20023;-69
2021/12/31 10:42:12;;;;;;;3.10;1.58;;;19.90;86.60;;;;;;4971989;28;20041;-69
2021/12/31 10:44:50;;;;;;;4.95;1.67;;;19.80;85.20;;;;;;4972202;28;20066;-68
2021/12/31 10:47:23;;;;;;;5.63;1.70;;;19.80;85.00;;;;;;4955540;28;20030;-69
2021/12/31 10:50:02;;;;;;;4.47;2.00;;;19.70;86.20;;;;;;4971793;28;20026;-69
2021/12/31 10:52:45;;;;;;;4.03;1.52;;;19.90;87.50;;;;;;4971863;28;20618;-69
2021/12/31 10:55:24;;;;;;;4.03;1.75;;;20.20;87.60;;;;;;4971910;28;20034;-69
2021/12/31 10:58:01;;;;;;;5.35;1.90;;;20.20;87.80;;;;;;4971815;28;20550;-69
2021/12/31 11:00:32;;;;;;;6.18;2.28;;;20.40;88.30;;;;;;4971456;28;20049;-69
2021/12/31 11:02:59;;;;;;;6.78;2.25;;;20.50;90.00;;;;;;5010907;28;20040;-69
2021/12/31 11:05:27;;;;;;;5.03;2.20;;;20.50;90.00;;;;;;5031998;28;20049;-67
2021/12/31 11:07:54;;;;;;;3.58;1.73;;;20.60;89.90;;;;;;5032219;28;20048;-69
2021/12/31 11:10:26;;;;;;;3.88;1.70;;;20.70;85.50;;;;;;5011995;28;20057;-68
2021/12/31 11:12:54;;;;;;;4.45;1.80;;;20.60;85.80;;;;;;5011971;28;20201;-68
2021/12/31 11:15:20;;;;;;;4.13;1.67;;;20.60;82.60;;;;;;5012132;28;20053;-69
2021/12/31 11:17:48;;;;;;;;;;;20.50;82.30;;;;;;5012980;28;20040;-69
2021/12/31 11:20:21;;;;;;;3.75;1.50;;;20.20;84.30;;;;;;5012310;28;19909;-69
2021/12/31 11:22:47;;;;;;;4.68;1.30;;;20.20;84.80;;;;;;5012283;28;20030;-69
2021/12/31 11:25:21;;;;;;;4.10;1.55;;;20.30;83.40;;;;;;5012210;28;20101;-68
2021/12/31 11:27:48;;;;;;;3.63;1.55;;;20.40;81.10;;;;;;5012224;28;20040;-69
2021/12/31 11:30:31;;;;;;;4.75;1.48;;;20.40;84.20;;;;;;4994359;28;20105;-69
2021/12/31 11:33:09;;;;;;;4.45;1.60;;;20.40;81.10;;;;;;5011955;28;20546;-68
2021/12/31 11:35:37;;;;;;;3.50;1.48;;;20.50;81.00;;;;;;5012419;28;20399;-70
2021/12/31 11:38:06;;;;;;;5.60;1.52;;;20.60;81.20;;;;;;5012255;28;20113;-69
2021/12/31 11:40:35;;;;;;;4.38;1.55;;;20.80;80.30;;;;;;4994676;28;20100;-69
2021/12/31 11:43:31;;;;;;;3.85;1.48;;;20.60;81.90;;;;;;5012075;28;20026;-69
2021/12/31 11:46:09;;;;;;;4.13;1.58;;;20.70;79.70;;;;;;4999574;28;20030;-68
2021/12/31 11:48:48;;;;;;;3.33;1.40;;;20.80;81.20;;;;;;5011901;28;20037;-70
2021/12/31 11:51:24;;;;;;;3.22;1.48;;;20.90;80.90;;;;;;5011731;28;20057;-69
2021/12/31 11:53:58;;;;;;;2.60;1.50;;;20.90;78.80;;;;;;5012016;28;20029;-69
2021/12/31 11:56:36;;;;;;;4.95;1.88;;;20.90;79.40;;;;;;5011542;28;20176;-69
2021/12/31 11:59:08;;;;;;;3.33;1.50;;;20.80;79.60;;;;;;5012322;28;20056;-69
2021/12/31 12:01:37;;;;;;;3.60;1.70;;;21.10;80.00;;;;;;4994402;28;20034;-68
2021/12/31 12:04:22;;;;;;;3.53;1.48;;;21.40;79.00;;;;;;5011802;28;20061;-69
2021/12/31 12:06:51;;;;;;;4.45;1.50;;;21.40;77.90;;;;;;5011779;28;20050;-70
2021/12/31 12:09:17;;;;;;;3.33;1.38;;;21.40;77.20;;;;;;5012074;28;20021;-69
2021/12/31 12:12:11;;;;;;;3.65;1.40;;;21.30;75.90;;;;;;5011454;28;20046;-67
2021/12/31 12:14:41;;;;;;;2.88;1.48;;;21.00;78.20;;;;;;5030560;28;20029;-69
2021/12/31 12:17:10;;;;;;;3.85;1.48;;;21.00;78.80;;;;;;5031219;28;20034;-68
2021/12/31 12:19:50;;;;;;;4.72;1.70;;;20.80;80.30;;;;;;5031031;28;20484;-69
2021/12/31 12:22:28;;;;;;;4.20;1.58;;;20.90;79.20;;;;;;5031177;28;20026;-69
2021/12/31 12:24:56;;;;;;;3.22;1.40;;;21.30;78.80;;;;;;5034447;28;20064;-70
2021/12/31 12:27:24;;;;;;;4.05;1.40;;;21.30;78.60;;;;;;5035298;28;20394;-69
2021/12/31 12:29:51;;;;;;;3.30;1.50;;;21.50;78.60;;;;;;5017023;28;20084;-69
2021/12/31 12:32:29;;;;;;;4.85;1.63;;;21.60;78.20;;;;;;5035083;28;20026;-70
2021/12/31 12:34:55;;;;;;;4.03;1.30;;;21.60;77.60;;;;;;5035320;28;20068;-68
2021/12/31 12:37:28;;;;;;;2.42;1.20;;;21.60;76.00;;;;;;5035513;28;20037;-70
2021/12/31 12:39:59;;;;;;;3.80;1.35;;;21.50;76.30;;;;;;5035114;28;20021;-70
2021/12/31 12:42:25;;;;;;;3.40;1.35;;;21.40;75.40;;;;;;5035027;28;20060;-68
2021/12/31 12:45:07;;;;;;;3.42;1.55;;;21.30;76.70;;;;;;5035194;28;20025;-70
2021/12/31 12:47:37;;;;;;;3.20;1.48;;;21.30;77.30;;;;;;5035530;28;20065;-70
2021/12/31 12:50:09;;;;;;;3.53;1.63;;;21.40;76.80;;;;;;5035023;28;20478;-69
2021/12/31 12:52:36;;;;;;;3.13;1.40;;;21.50;75.90;;;;;;5017100;28;20392;-70
2021/12/31 12:55:12;;;;;;;;;;;21.50;75.70;;;;;;5017369;28;20041;-69
2021/12/31 12:57:40;;;;;;;3.25;1.33;;;21.40;77.40;;;;;;5034875;28;20320;-69
2021/12/31 13:00:08;;;;;;;5.40;1.77;;;21.30;80.90;;;;;;5034671;28;20033;-69